KIRK/IRK METAR and TAF weather

Enter ICAO airport designator
Station Type Date Time Source
KIRK METAR 2019/02/20 07:03 UTC NOAA

KIRK 200703Z AUTO 08015G22KT 1SM -SN BR SCT009 OVC013 M02/M02 A2998 RMK AO2 PRESFR P0002 T10221022


Station Type Date Time Source
KIRK Decoded METAR 2019/02/20 07:03 UTC NOAA

KIRKSVILLE REGIONAL AIRPORT , MO, United States (KIRK) 40-06N 092-33W 293M
Feb 20, 2019 - 02:03 AM EST / 2019.02.20 0703 UTC
Wind: from the E (080 degrees) at 17 MPH (15 KT) gusting to 25 MPH (22 KT):0
Visibility: 1 mile(s):0
Sky conditions: overcast
Weather: light snow; mist
Precipitation last hour: 0.02 inches
Temperature: 28.0 F (-2.2 C)
Windchill: 15 F (-9 C):1
Dew Point: 28.0 F (-2.2 C)
Relative Humidity: 100%
Pressure (altimeter): 29.98 in. Hg (1015 hPa)
Pressure tendency: falling rapidly
ob: KIRK 200703Z AUTO 08015G22KT 1SM -SN BR SCT009 OVC013 M02/M02 A2998 RMK AO2 PRESFR P0002 T10221022
cycle: 7

Station Type Date Time Source
KIRK TAF UTC NOAA

Error!


Example: see airport list